This is the latest recevied weather packets stored in our database for station/object K4ROM-1. If no packets are shown the sender has not sent any weather packets the latest 10 day(s).
| Time | Temp. | Humidity | Pressure | Rain* | Wind** | Luminosity | Snow |
|---|---|---|---|---|---|---|---|
| 1777663203 | 16.11° C | 66% | 1015.7 hPa | 0 mm | 0 m/s | - | - |
| 1777662603 | 16.11° C | 65% | 1015.7 hPa | 0 mm | 0 m/s | - | - |
| 1777662003 | 15.56° C | 66% | 1015.8 hPa | 0 mm | 0 m/s | - | - |
| 1777661403 | 15.56° C | 64% | 1015.7 hPa | 0 mm | 0 m/s | - | - |
| 1777660803 | 15.56° C | 62% | 1015.7 hPa | 0 mm | 0 m/s | - | - |
| 1777660204 | 16.11° C | 62% | 1015.9 hPa | 0 mm | 0 m/s | - | - |
| 1777659603 | 16.67° C | 61% | 1015.7 hPa | 0 mm | 0.45 m/s, 261° | - | - |
| 1777659003 | 16.67° C | 59% | 1015.6 hPa | 0 mm | 0 m/s | - | - |
| 1777658403 | 15.56° C | 60% | 1016 hPa | 0 mm | 0.45 m/s, 263° | - | - |
| 1777657803 | 15.56° C | 60% | 1016.1 hPa | 0 mm | 0 m/s | - | - |
| 1777657203 | 16.11° C | 57% | 1016.4 hPa | 0 mm | 0 m/s | - | - |
| 1777656603 | 16.11° C | 58% | 1016.5 hPa | 0 mm | 0 m/s | - | - |
| 1777656003 | 16.11° C | 56% | 1016.4 hPa | 0 mm | 0 m/s | - | - |
| 1777655403 | 15.56° C | 61% | 1016.3 hPa | 0 mm | 0 m/s | - | - |
| 1777654803 | 15.56° C | 59% | 1016.8 hPa | 0 mm | 0 m/s | - | - |
| 1777654203 | 15.56° C | 61% | 1016.8 hPa | 0 mm | 0 m/s | - | - |
| 1777653603 | 15.56° C | 62% | 1016.9 hPa | 0 mm | 0 m/s | - | - |
| 1777653003 | 15.56° C | 61% | 1016.6 hPa | 0 mm | 0 m/s | - | - |
| 1777652403 | 15° C | 61% | 1016.7 hPa | 0 mm | 0 m/s | - | - |
| 1777651802 | 15.56° C | 60% | 1016.8 hPa | 0 mm | 0.45 m/s, 288° | - | - |
| 1777651203 | 16.11° C | 57% | 1016.9 hPa | 0 mm | 0 m/s | - | - |
| 1777650603 | 16.11° C | 56% | 1016.8 hPa | 0 mm | 0 m/s | - | - |
| 1777650003 | 16.11° C | 56% | 1017 hPa | 0 mm | 0 m/s | - | - |
| 1777649403 | 16.11° C | 56% | 1016.9 hPa | 0 mm | 0.89 m/s, 249° | - | - |
| 1777648803 | 16.11° C | 57% | 1016.9 hPa | 0 mm | 0 m/s | - | - |
* Rain latest hour (hover to see other rain measurements)
** Current wind speed in m/s (hover to see current wind gust speed)